createdAt,value
2023-09-13T00:00:19.248Z,10.60
2023-09-13T00:02:21.099Z,11.67
2023-09-13T00:04:22.980Z,12.10
2023-09-13T00:06:26.290Z,11.43
2023-09-13T00:08:29.355Z,11.10
2023-09-13T00:10:31.260Z,11.20
2023-09-13T00:12:33.402Z,10.17
2023-09-13T00:14:35.557Z,10.30
2023-09-13T00:16:40.700Z,9.70
2023-09-13T00:18:42.512Z,9.60
2023-09-13T00:20:44.341Z,11.40
2023-09-13T00:22:46.093Z,10.17
2023-09-13T00:24:49.230Z,10.03
2023-09-13T00:26:52.088Z,9.67
2023-09-13T00:28:56.802Z,10.63
2023-09-13T00:30:58.743Z,10.70
2023-09-13T00:33:00.548Z,9.87
2023-09-13T00:35:02.713Z,9.07
2023-09-13T00:37:12.021Z,10.90
2023-09-13T00:39:13.645Z,9.83
2023-09-13T00:41:16.578Z,10.03
2023-09-13T00:43:19.241Z,9.97
2023-09-13T00:45:24.026Z,9.50
2023-09-13T00:47:26.104Z,11.07
2023-09-13T00:49:28.129Z,9.77
2023-09-13T00:51:30.523Z,10.20
2023-09-13T00:53:33.631Z,9.90
2023-09-13T00:55:35.400Z,10.00
2023-09-13T00:57:40.783Z,9.63
2023-09-13T00:59:42.581Z,11.07
2023-09-13T01:01:44.798Z,10.47
2023-09-13T01:03:47.719Z,11.47
2023-09-13T01:05:53.999Z,12.10
2023-09-13T01:07:56.020Z,10.67
2023-09-13T01:09:58.343Z,10.40
2023-09-13T01:12:01.167Z,12.03
2023-09-13T01:14:07.885Z,11.37
2023-09-13T01:16:18.811Z,10.83
2023-09-13T01:18:29.111Z,11.63
2023-09-13T01:20:47.828Z,10.83
2023-09-13T01:23:25.638Z,11.00
2023-09-13T01:25:53.559Z,11.23
2023-09-13T01:28:05.879Z,10.23
2023-09-13T01:30:10.184Z,11.37
2023-09-13T01:32:12.082Z,10.63
2023-09-13T01:34:13.906Z,9.57
2023-09-13T01:36:16.201Z,11.30
2023-09-13T01:38:20.489Z,8.97
2023-09-13T01:40:26.168Z,10.30
2023-09-13T01:42:31.304Z,9.03
2023-09-13T01:44:42.692Z,9.60
2023-09-13T01:46:46.808Z,9.27
2023-09-13T01:48:49.051Z,8.50
2023-09-13T01:50:52.358Z,7.13
2023-09-13T01:52:54.342Z,7.07
2023-09-13T01:54:56.827Z,7.87
2023-09-13T01:56:58.529Z,8.80
2023-09-13T01:59:00.371Z,7.00
2023-09-13T02:01:02.248Z,6.33
2023-09-13T02:03:06.604Z,7.33
2023-09-13T02:05:08.793Z,7.63
2023-09-13T02:07:10.644Z,8.80
2023-09-13T02:09:12.412Z,6.77
2023-09-13T02:11:14.102Z,7.73
2023-09-13T02:13:15.833Z,6.37
2023-09-13T02:15:17.919Z,7.70
2023-09-13T02:17:20.704Z,8.00
2023-09-13T02:19:23.920Z,6.40
2023-09-13T02:21:25.648Z,8.07
2023-09-13T02:23:27.423Z,5.80
2023-09-13T02:25:29.197Z,6.60
2023-09-13T02:27:31.025Z,6.03
2023-09-13T02:29:32.861Z,5.40
2023-09-13T02:31:34.699Z,6.07
2023-09-13T02:33:36.357Z,5.60
2023-09-13T02:35:39.665Z,6.00
2023-09-13T02:37:41.288Z,5.67
2023-09-13T02:39:43.315Z,5.87
2023-09-13T02:41:45.211Z,6.33
2023-09-13T02:43:49.015Z,5.63
2023-09-13T02:45:53.484Z,5.17
2023-09-13T02:47:55.170Z,6.80
2023-09-13T02:49:58.459Z,6.00
2023-09-13T02:52:03.363Z,6.30
2023-09-13T02:54:05.500Z,6.43
2023-09-13T02:56:08.687Z,6.60
2023-09-13T02:58:10.539Z,6.10
2023-09-13T03:00:13.822Z,9.47
2023-09-13T03:02:15.694Z,10.90
2023-09-13T03:04:18.036Z,7.10
2023-09-13T03:06:19.705Z,5.97
2023-09-13T03:08:22.794Z,7.67
2023-09-13T03:10:29.604Z,5.10
2023-09-13T03:12:31.372Z,5.30
2023-09-13T03:14:33.299Z,6.27
2023-09-13T03:16:35.103Z,5.40
2023-09-13T03:18:36.802Z,5.30
2023-09-13T03:20:40.126Z,5.33
2023-09-13T03:22:41.888Z,6.13
2023-09-13T03:24:47.310Z,6.50
2023-09-13T03:26:48.948Z,6.10
2023-09-13T03:28:51.695Z,5.57
2023-09-13T03:30:53.381Z,8.40
2023-09-13T03:32:55.454Z,6.27
2023-09-13T03:34:57.198Z,6.60
2023-09-13T03:36:58.929Z,7.20
2023-09-13T03:39:00.924Z,5.53
2023-09-13T03:41:09.662Z,5.90
2023-09-13T03:43:11.404Z,5.00
2023-09-13T03:45:13.141Z,6.13
2023-09-13T03:47:15.077Z,6.30
2023-09-13T03:49:17.191Z,5.60
2023-09-13T03:51:19.467Z,6.17
2023-09-13T03:53:21.457Z,5.80
2023-09-13T03:55:23.629Z,7.93
2023-09-13T03:57:27.097Z,6.00
2023-09-13T03:59:28.937Z,6.23
2023-09-13T04:01:30.951Z,6.30
2023-09-13T04:03:34.230Z,6.30
2023-09-13T04:05:37.538Z,6.10
2023-09-13T04:07:39.220Z,6.30
2023-09-13T04:09:40.954Z,5.97
2023-09-13T04:11:42.941Z,6.33
2023-09-13T04:13:46.245Z,5.77
2023-09-13T04:15:48.313Z,6.30
2023-09-13T04:17:50.141Z,6.10
2023-09-13T04:19:57.340Z,6.67
2023-09-13T04:21:59.083Z,6.23
2023-09-13T04:24:01.473Z,9.60
2023-09-13T04:26:04.252Z,8.60
2023-09-13T04:28:06.511Z,7.20
2023-09-13T04:30:10.908Z,6.80
2023-09-13T04:32:12.585Z,8.13
2023-09-13T04:34:14.479Z,7.10
2023-09-13T04:36:16.177Z,7.07
2023-09-13T04:38:21.134Z,7.90
2023-09-13T04:40:25.902Z,7.30
2023-09-13T04:42:27.971Z,7.83
2023-09-13T04:44:29.638Z,7.93
2023-09-13T04:46:32.779Z,7.43
2023-09-13T04:48:34.607Z,7.37
2023-09-13T04:50:36.620Z,7.27
2023-09-13T04:52:38.461Z,9.23
2023-09-13T04:54:41.727Z,8.10
2023-09-13T04:56:43.638Z,7.57
2023-09-13T04:58:45.517Z,7.70
2023-09-13T05:00:47.525Z,8.30
2023-09-13T05:02:50.632Z,9.73
2023-09-13T05:04:52.354Z,9.60
2023-09-13T05:06:54.355Z,9.13
2023-09-13T05:08:56.071Z,8.87
2023-09-13T05:10:58.050Z,8.10
2023-09-13T05:12:59.861Z,9.47
2023-09-13T05:15:04.402Z,9.60
2023-09-13T05:17:09.016Z,8.60
2023-09-13T05:19:16.761Z,10.57
2023-09-13T05:21:18.819Z,9.30
2023-09-13T05:23:20.481Z,13.70
2023-09-13T05:25:22.482Z,8.40
2023-09-13T05:27:24.464Z,9.20
2023-09-13T05:29:26.192Z,9.77
2023-09-13T05:31:28.046Z,10.67
2023-09-13T05:33:29.892Z,11.20
2023-09-13T05:35:35.852Z,9.87
2023-09-13T05:37:37.531Z,10.00
2023-09-13T05:39:39.140Z,7.60
2023-09-13T05:41:40.726Z,9.13
2023-09-13T05:43:44.107Z,8.27
2023-09-13T05:45:46.212Z,9.07
2023-09-13T05:47:49.034Z,8.87
2023-09-13T05:49:50.718Z,10.03
2023-09-13T05:51:53.659Z,9.70
2023-09-13T05:53:55.296Z,9.23
2023-09-13T05:55:56.940Z,8.10
2023-09-13T05:57:58.578Z,8.97
2023-09-13T06:00:00.430Z,9.43
2023-09-13T06:02:02.353Z,8.43
2023-09-13T06:04:04.439Z,9.03
2023-09-13T06:06:06.106Z,8.97
2023-09-13T06:08:09.067Z,8.37
2023-09-13T06:10:11.014Z,8.90
2023-09-13T06:12:12.686Z,8.67
2023-09-13T06:14:15.821Z,10.40
2023-09-13T06:16:17.592Z,9.00
2023-09-13T06:18:19.328Z,8.77
2023-09-13T06:20:21.404Z,8.33
2023-09-13T06:22:23.278Z,10.43
2023-09-13T06:24:26.406Z,9.10
2023-09-13T06:26:28.040Z,9.00
2023-09-13T06:28:33.530Z,10.03
2023-09-13T06:30:35.553Z,8.43
2023-09-13T06:32:41.691Z,7.67
2023-09-13T06:34:44.296Z,9.30
2023-09-13T06:36:46.811Z,8.47
2023-09-13T06:38:49.583Z,8.67
2023-09-13T06:40:53.090Z,8.77
2023-09-13T06:43:00.696Z,8.80
2023-09-13T06:45:18.333Z,7.67
2023-09-13T06:47:23.307Z,8.93
2023-09-13T06:49:26.700Z,9.37
2023-09-13T06:53:45.140Z,9.17
2023-09-13T06:55:48.544Z,9.70
2023-09-13T06:57:53.356Z,8.47
2023-09-13T07:00:00.813Z,10.13
2023-09-13T07:02:21.558Z,9.63
2023-09-13T07:04:31.462Z,8.83
2023-09-13T07:06:36.995Z,8.73
2023-09-13T07:08:38.803Z,9.17
2023-09-13T07:10:40.579Z,8.80
2023-09-13T07:12:42.214Z,9.60
2023-09-13T07:14:45.188Z,10.40
2023-09-13T07:16:47.016Z,11.53
2023-09-13T07:18:48.763Z,9.47
2023-09-13T07:20:50.414Z,8.87
2023-09-13T07:22:52.069Z,8.93
2023-09-13T07:24:55.894Z,8.97
2023-09-13T07:26:57.499Z,8.47
2023-09-13T07:28:59.137Z,9.10
2023-09-13T07:31:06.569Z,9.50
2023-09-13T07:33:08.267Z,9.70
2023-09-13T07:35:10.000Z,8.40
2023-09-13T07:37:11.699Z,8.70
2023-09-13T07:39:13.354Z,8.67
2023-09-13T07:41:15.105Z,9.93
2023-09-13T07:43:16.803Z,9.00
2023-09-13T07:45:18.648Z,9.03
2023-09-13T07:47:21.818Z,17.17
2023-09-13T07:49:23.570Z,8.60
2023-09-13T07:51:25.274Z,8.27
2023-09-13T07:53:27.043Z,8.70
2023-09-13T07:55:28.958Z,8.57
2023-09-13T07:57:30.610Z,7.33
2023-09-13T07:59:32.315Z,9.40
2023-09-13T08:01:34.064Z,9.00
2023-09-13T08:03:37.204Z,11.00
2023-09-13T08:05:39.126Z,8.07
2023-09-13T08:07:40.850Z,7.83
2023-09-13T08:09:42.560Z,8.60
2023-09-13T08:11:45.796Z,8.20
2023-09-13T08:13:47.554Z,9.03
2023-09-13T08:15:50.165Z,9.37
2023-09-13T08:17:51.981Z,7.97
2023-09-13T08:19:55.198Z,8.53
2023-09-13T08:21:57.051Z,9.43
2023-09-13T08:23:58.744Z,9.33
2023-09-13T08:26:13.453Z,8.33
2023-09-13T08:28:22.260Z,11.13
2023-09-13T08:30:24.426Z,8.53
2023-09-13T08:32:26.369Z,9.23
2023-09-13T08:34:28.272Z,9.40
2023-09-13T08:36:31.444Z,10.90
2023-09-13T08:38:33.177Z,9.87
2023-09-13T08:40:40.959Z,8.43
2023-09-13T08:42:43.087Z,10.10
2023-09-13T08:44:45.789Z,10.13
2023-09-13T08:46:50.138Z,9.07
2023-09-13T08:48:52.693Z,9.30
2023-09-13T08:50:54.470Z,8.87
2023-09-13T08:53:00.123Z,10.60
2023-09-13T08:55:02.770Z,10.83
2023-09-13T08:57:05.919Z,8.43
2023-09-13T08:59:08.279Z,10.80
2023-09-13T09:01:11.180Z,8.23
2023-09-13T09:03:15.563Z,9.67
2023-09-13T09:05:17.967Z,12.03
2023-09-13T09:07:20.976Z,6.70
2023-09-13T09:09:24.851Z,9.07
2023-09-13T09:11:28.096Z,9.07
2023-09-13T09:13:31.105Z,9.07
2023-09-13T09:15:34.790Z,8.07
2023-09-13T09:17:37.542Z,7.50
2023-09-13T09:19:39.678Z,7.37
2023-09-13T09:21:41.957Z,8.80
2023-09-13T09:23:43.725Z,8.27
2023-09-13T09:25:50.922Z,10.80
2023-09-13T09:27:52.881Z,9.47
2023-09-13T09:30:01.334Z,9.33
2023-09-13T09:32:04.290Z,11.07
2023-09-13T09:34:06.523Z,7.00
2023-09-13T09:36:10.642Z,8.80
2023-09-13T09:38:21.613Z,7.20
2023-09-13T09:40:23.573Z,8.03
2023-09-13T09:42:26.689Z,8.10
2023-09-13T09:44:28.964Z,8.63
2023-09-13T09:46:31.592Z,7.77
2023-09-13T09:48:33.422Z,8.93
2023-09-13T09:50:35.681Z,7.70
2023-09-13T09:52:37.622Z,8.00
2023-09-13T09:54:39.736Z,8.30
2023-09-13T09:56:41.760Z,9.57
2023-09-13T09:58:47.050Z,9.43
2023-09-13T10:00:50.467Z,8.67
2023-09-13T10:02:52.512Z,8.53
2023-09-13T10:04:54.935Z,9.47
2023-09-13T10:06:57.607Z,9.53
2023-09-13T10:09:00.554Z,7.00
2023-09-13T10:11:03.125Z,9.23
2023-09-13T10:13:05.350Z,9.30
2023-09-13T10:15:09.612Z,11.37
2023-09-13T10:17:11.502Z,9.13
2023-09-13T10:19:13.288Z,9.77
2023-09-13T10:21:16.530Z,10.43
2023-09-13T10:23:21.061Z,11.27
2023-09-13T10:25:24.520Z,10.73
2023-09-13T10:27:28.670Z,9.50
2023-09-13T10:29:32.959Z,10.23
2023-09-13T10:31:40.641Z,10.10
2023-09-13T10:33:45.365Z,20.93
2023-09-13T10:35:53.411Z,28.73
2023-09-13T10:38:03.253Z,12.33
2023-09-13T10:40:13.485Z,9.47
2023-09-13T10:42:15.300Z,8.67
2023-09-13T10:44:18.179Z,9.90
2023-09-13T10:46:20.872Z,10.83
2023-09-13T10:48:25.170Z,9.33
2023-09-13T10:50:27.324Z,8.87
2023-09-13T10:52:30.474Z,8.93
2023-09-13T10:54:33.255Z,9.40
2023-09-13T10:56:36.163Z,10.50
2023-09-13T10:58:45.477Z,9.40
2023-09-13T11:00:48.286Z,10.10
2023-09-13T11:02:52.725Z,9.47
2023-09-13T11:04:56.108Z,10.07
2023-09-13T11:06:58.345Z,11.53
2023-09-13T11:09:11.890Z,8.80
2023-09-13T11:11:15.410Z,8.03
2023-09-13T11:13:17.113Z,9.30
2023-09-13T11:15:23.773Z,7.90
2023-09-13T11:17:36.765Z,9.53
2023-09-13T11:19:38.637Z,9.70
2023-09-13T11:21:49.376Z,9.33
2023-09-13T11:24:03.165Z,10.10
2023-09-13T11:26:08.668Z,10.07
2023-09-13T11:28:29.490Z,9.70
2023-09-13T11:30:47.258Z,10.00
2023-09-13T11:32:48.996Z,10.07
2023-09-13T11:34:58.228Z,10.07
2023-09-13T11:37:02.631Z,8.73
2023-09-13T11:39:06.718Z,7.60
2023-09-13T11:41:09.582Z,10.10
2023-09-13T11:43:27.644Z,10.00
2023-09-13T11:45:35.918Z,9.60
2023-09-13T11:47:38.763Z,8.87
2023-09-13T11:49:42.327Z,8.33
2023-09-13T11:53:53.043Z,8.17
2023-09-13T11:58:09.969Z,10.67
2023-09-13T12:00:16.425Z,9.57
2023-09-13T12:02:19.264Z,8.03
2023-09-13T12:04:52.222Z,8.60
2023-09-13T12:06:49.954Z,9.43
2023-09-13T12:08:57.903Z,13.80
2023-09-13T12:11:04.630Z,9.43
2023-09-13T12:13:14.781Z,9.23
2023-09-13T12:17:37.978Z,9.70
2023-09-13T12:19:39.896Z,7.83
2023-09-13T12:21:44.328Z,8.73
2023-09-13T12:23:46.416Z,8.00
2023-09-13T12:25:50.044Z,8.43
2023-09-13T12:27:52.543Z,8.37
2023-09-13T12:29:54.334Z,8.83
2023-09-13T12:31:56.223Z,9.43
2023-09-13T12:33:58.151Z,8.87
2023-09-13T12:36:00.041Z,8.83
2023-09-13T12:38:02.973Z,10.73
2023-09-13T12:40:12.453Z,10.50
2023-09-13T12:42:15.625Z,9.13
2023-09-13T12:44:17.346Z,10.03
2023-09-13T12:46:21.175Z,10.27
2023-09-13T12:48:24.561Z,10.33
2023-09-13T12:50:34.484Z,10.97
2023-09-13T12:52:36.997Z,10.70
2023-09-13T12:54:38.703Z,12.43
2023-09-13T12:56:40.723Z,9.30
2023-09-13T12:58:52.126Z,9.73
2023-09-13T13:00:56.169Z,9.10
2023-09-13T13:02:57.995Z,11.57
2023-09-13T13:04:59.807Z,8.53
2023-09-13T13:07:01.533Z,9.30
2023-09-13T13:09:05.015Z,8.27
2023-09-13T13:11:07.466Z,7.90
2023-09-13T13:13:09.169Z,10.50
2023-09-13T13:15:12.344Z,8.13
2023-09-13T13:17:14.635Z,8.93
2023-09-13T13:19:24.712Z,9.40
2023-09-13T13:21:38.956Z,9.50
2023-09-13T13:23:43.099Z,9.63
2023-09-13T13:25:45.236Z,8.30
2023-09-13T13:27:46.936Z,8.90
2023-09-13T13:29:48.648Z,8.63
2023-09-13T13:31:51.868Z,8.53
2023-09-13T13:33:53.726Z,8.43
2023-09-13T13:35:55.470Z,10.63
2023-09-13T13:37:57.142Z,8.73
2023-09-13T13:39:58.794Z,8.97
2023-09-13T13:42:00.537Z,9.20
2023-09-13T13:44:02.260Z,9.40
2023-09-13T13:46:07.068Z,9.60
2023-09-13T13:48:10.289Z,10.80
2023-09-13T13:50:12.233Z,9.57
2023-09-13T13:52:14.026Z,9.03
2023-09-13T13:54:16.015Z,8.90
2023-09-13T13:56:17.705Z,8.60
2023-09-13T13:58:19.362Z,7.80
2023-09-13T14:00:21.117Z,9.77
2023-09-13T14:02:22.801Z,8.60
2023-09-13T14:04:25.995Z,9.33
2023-09-13T14:06:27.629Z,10.90
2023-09-13T14:08:29.285Z,10.17
2023-09-13T14:10:31.298Z,10.40
2023-09-13T14:12:33.044Z,9.57
2023-09-13T14:14:35.020Z,11.33
2023-09-13T14:16:36.814Z,10.27
2023-09-13T14:18:38.698Z,9.00
2023-09-13T14:20:41.896Z,8.03
2023-09-13T14:22:43.651Z,7.73
2023-09-13T14:24:45.552Z,10.07
2023-09-13T14:26:47.211Z,6.97
2023-09-13T14:28:48.848Z,8.80
2023-09-13T14:30:52.209Z,6.73
2023-09-13T14:32:53.859Z,7.80
2023-09-13T14:34:55.583Z,6.30
2023-09-13T14:36:58.737Z,6.23
2023-09-13T14:39:00.489Z,7.03
2023-09-13T14:41:04.782Z,6.77
2023-09-13T14:43:06.539Z,6.60
2023-09-13T14:45:08.919Z,6.17
2023-09-13T14:47:10.728Z,6.33
2023-09-13T14:49:12.733Z,8.60
2023-09-13T14:51:14.549Z,6.20
2023-09-13T14:53:17.639Z,6.93
2023-09-13T14:55:19.475Z,6.37
2023-09-13T14:57:21.165Z,8.10
2023-09-13T14:59:22.751Z,6.23
2023-09-13T15:01:28.248Z,5.03
2023-09-13T15:03:29.981Z,4.87
2023-09-13T15:05:31.745Z,9.33
2023-09-13T15:07:33.573Z,6.33
2023-09-13T15:09:36.589Z,6.30
2023-09-13T15:11:39.773Z,5.80
2023-09-13T15:13:41.676Z,6.17
2023-09-13T15:15:44.214Z,5.70
2023-09-13T15:17:46.047Z,5.80
2023-09-13T15:19:47.740Z,7.30
2023-09-13T15:21:49.558Z,8.20
2023-09-13T15:23:51.271Z,8.43
2023-09-13T15:25:54.352Z,5.80
2023-09-13T15:27:56.056Z,6.20
2023-09-13T15:29:57.859Z,5.40
2023-09-13T15:34:04.656Z,6.57
2023-09-13T15:36:06.916Z,8.10
2023-09-13T15:38:08.761Z,7.47
2023-09-13T15:40:11.985Z,6.30
2023-09-13T15:42:15.053Z,6.40
2023-09-13T15:44:18.495Z,5.23
2023-09-13T15:46:20.206Z,5.23
2023-09-13T15:48:22.094Z,5.67
2023-09-13T15:50:23.953Z,5.87
2023-09-13T15:52:25.593Z,6.30
2023-09-13T15:54:27.252Z,7.10
2023-09-13T15:56:29.089Z,6.63
2023-09-13T15:58:32.645Z,6.00
2023-09-13T16:00:34.468Z,8.60
2023-09-13T16:02:36.436Z,6.90
2023-09-13T16:04:38.195Z,5.80
2023-09-13T16:06:40.139Z,6.23
2023-09-13T16:08:41.992Z,7.47
2023-09-13T16:10:44.034Z,5.97
2023-09-13T16:12:45.658Z,9.47
2023-09-13T16:14:48.887Z,8.00
2023-09-13T16:16:50.732Z,9.10
2023-09-13T16:18:52.649Z,7.03
2023-09-13T16:20:54.380Z,6.40
2023-09-13T16:22:56.052Z,6.87
2023-09-13T16:24:58.226Z,5.43
2023-09-13T16:27:02.692Z,4.70
2023-09-13T16:29:04.366Z,5.50
2023-09-13T16:31:07.813Z,5.70
2023-09-13T16:33:09.757Z,5.80
2023-09-13T16:35:11.473Z,6.77
2023-09-13T16:37:13.326Z,8.30
2023-09-13T16:39:15.280Z,5.93
2023-09-13T16:41:19.146Z,7.27
2023-09-13T16:43:21.025Z,6.27
2023-09-13T16:45:22.752Z,5.13
2023-09-13T16:47:25.896Z,5.10
2023-09-13T16:49:27.522Z,4.90
2023-09-13T16:51:29.520Z,5.27
2023-09-13T16:53:34.348Z,7.87
2023-09-13T16:55:36.017Z,7.30
2023-09-13T16:57:39.084Z,5.70
2023-09-13T16:59:43.608Z,8.20
2023-09-13T17:01:50.272Z,6.97
2023-09-13T17:03:55.880Z,7.20
2023-09-13T17:05:57.857Z,5.90
2023-09-13T17:08:01.299Z,6.97
2023-09-13T17:10:03.230Z,4.53
2023-09-13T17:12:05.925Z,5.13
2023-09-13T17:14:07.874Z,5.93
2023-09-13T17:16:09.647Z,5.00
2023-09-13T17:18:11.788Z,4.93
2023-09-13T17:20:15.266Z,6.67
2023-09-13T17:22:17.165Z,4.20
2023-09-13T17:24:19.695Z,4.37
2023-09-13T17:26:21.348Z,4.90
2023-09-13T17:28:23.266Z,5.70
2023-09-13T17:30:24.933Z,4.70
2023-09-13T17:32:26.962Z,6.87
2023-09-13T17:34:28.736Z,4.97
2023-09-13T17:36:41.491Z,4.67
2023-09-13T17:38:44.340Z,5.07
2023-09-13T17:40:46.813Z,6.70
2023-09-13T17:42:48.592Z,4.80
2023-09-13T17:44:50.354Z,6.40
2023-09-13T17:46:52.093Z,4.73
2023-09-13T17:48:55.985Z,4.60
2023-09-13T17:50:57.792Z,6.30
2023-09-13T17:53:05.892Z,5.97
2023-09-13T17:55:08.972Z,5.50
2023-09-13T17:57:10.939Z,6.60
2023-09-13T17:59:13.216Z,5.13
2023-09-13T18:01:15.130Z,4.47
2023-09-13T18:03:18.066Z,4.70
2023-09-13T18:05:21.295Z,5.60
2023-09-13T18:07:23.125Z,4.60
2023-09-13T18:09:26.379Z,4.93
2023-09-13T18:11:28.260Z,8.77
2023-09-13T18:13:30.479Z,4.97
2023-09-13T18:15:33.959Z,4.70
2023-09-13T18:17:48.700Z,5.60
2023-09-13T18:19:56.844Z,4.33
2023-09-13T18:21:59.591Z,4.40
2023-09-13T18:24:01.731Z,5.17
2023-09-13T18:26:08.084Z,12.33
2023-09-13T18:28:10.966Z,5.17
2023-09-13T18:30:14.358Z,4.93
2023-09-13T18:32:16.451Z,4.60
2023-09-13T18:34:18.152Z,4.47
2023-09-13T18:36:20.198Z,4.40
2023-09-13T18:38:21.919Z,4.70
2023-09-13T18:40:23.731Z,5.23
2023-09-13T18:42:26.846Z,5.00
2023-09-13T18:44:29.049Z,4.67
2023-09-13T18:46:30.760Z,4.40
2023-09-13T18:48:33.070Z,4.70
2023-09-13T18:50:35.508Z,4.60
2023-09-13T18:52:37.155Z,5.10
2023-09-13T18:54:38.925Z,4.50
2023-09-13T18:56:40.656Z,5.03
2023-09-13T18:58:44.048Z,4.10
2023-09-13T19:00:46.128Z,4.40
2023-09-13T19:02:49.486Z,6.50
2023-09-13T19:04:52.145Z,4.40
2023-09-13T19:07:08.525Z,5.30
2023-09-13T19:09:11.615Z,4.33
2023-09-13T19:11:13.251Z,4.07
2023-09-13T19:13:14.888Z,6.23
2023-09-13T19:15:20.788Z,4.57
2023-09-13T19:17:22.440Z,5.00
2023-09-13T19:19:24.387Z,5.17
2023-09-13T19:21:26.365Z,4.67
2023-09-13T19:23:30.671Z,6.97
2023-09-13T19:25:32.513Z,5.13
2023-09-13T19:27:34.333Z,4.40
2023-09-13T19:29:36.274Z,4.50
2023-09-13T19:31:39.807Z,4.40
2023-09-13T19:33:41.624Z,4.00
2023-09-13T19:35:45.938Z,4.90
2023-09-13T19:37:47.659Z,5.57
2023-09-13T19:39:49.400Z,4.93
2023-09-13T19:41:51.206Z,5.10
2023-09-13T19:43:52.915Z,5.87
2023-09-13T19:45:55.608Z,4.83
2023-09-13T19:47:58.745Z,5.37
2023-09-13T19:50:00.482Z,5.27
2023-09-13T19:52:02.494Z,5.27
2023-09-13T19:54:04.520Z,5.40
2023-09-13T19:56:07.986Z,5.40
2023-09-13T19:58:09.982Z,5.30
2023-09-13T20:00:12.570Z,7.30
2023-09-13T20:02:14.546Z,5.30
2023-09-13T20:04:17.644Z,5.37
2023-09-13T20:06:19.599Z,4.70
2023-09-13T20:08:21.330Z,5.67
2023-09-13T20:10:23.074Z,4.90
2023-09-13T20:12:25.808Z,5.17
2023-09-13T20:14:27.634Z,5.87
2023-09-13T20:16:32.421Z,5.23
2023-09-13T20:18:35.409Z,6.03
2023-09-13T20:20:38.840Z,5.40
2023-09-13T20:22:40.565Z,4.70
2023-09-13T20:24:43.393Z,6.00
2023-09-13T20:26:45.698Z,7.53
2023-09-13T20:28:49.283Z,5.80
2023-09-13T20:30:51.192Z,5.70
2023-09-13T20:32:53.143Z,5.37
2023-09-13T20:34:57.364Z,4.80
2023-09-13T20:37:00.523Z,4.50
2023-09-13T20:39:02.303Z,5.00
2023-09-13T20:41:03.911Z,6.60
2023-09-13T20:43:06.213Z,5.93
2023-09-13T20:45:08.453Z,4.93
2023-09-13T20:47:11.021Z,4.83
2023-09-13T20:49:12.880Z,4.43
2023-09-13T20:51:14.733Z,5.03
2023-09-13T20:53:18.115Z,4.43
2023-09-13T20:55:19.884Z,4.80
2023-09-13T20:57:21.734Z,4.90
2023-09-13T20:59:23.508Z,6.33
2023-09-13T21:01:25.389Z,5.03
2023-09-13T21:03:27.813Z,3.80
2023-09-13T21:05:29.942Z,4.30
2023-09-13T21:07:31.761Z,4.63
2023-09-13T21:09:38.659Z,4.37
2023-09-13T21:11:43.030Z,4.70
2023-09-13T21:13:44.720Z,4.80
2023-09-13T21:15:46.622Z,4.83
2023-09-13T21:17:48.397Z,4.60
2023-09-13T21:19:51.640Z,3.67
2023-09-13T21:21:59.243Z,6.70
2023-09-13T21:24:00.938Z,4.87
2023-09-13T21:26:04.250Z,4.10
2023-09-13T21:28:06.876Z,3.50
2023-09-13T21:30:10.155Z,6.67
2023-09-13T21:32:12.219Z,4.17
2023-09-13T21:34:21.059Z,3.03
2023-09-13T21:36:24.044Z,4.33
2023-09-13T21:38:25.964Z,4.80
2023-09-13T21:40:27.734Z,4.40
2023-09-13T21:42:33.833Z,4.30
2023-09-13T21:44:36.269Z,4.93
2023-09-13T21:46:38.076Z,4.00
2023-09-13T21:48:39.950Z,4.43
2023-09-13T21:50:44.978Z,3.53
2023-09-13T21:52:47.111Z,3.67
2023-09-13T21:54:50.535Z,3.80
2023-09-13T21:56:55.291Z,3.70
2023-09-13T21:59:06.153Z,3.63
2023-09-13T22:01:14.319Z,3.80
2023-09-13T22:03:16.852Z,3.73
2023-09-13T22:05:19.233Z,4.20
2023-09-13T22:07:21.264Z,4.30
2023-09-13T22:09:24.215Z,3.90
2023-09-13T22:11:34.897Z,3.73
2023-09-13T22:13:38.032Z,3.80
2023-09-13T22:15:41.618Z,3.17
2023-09-13T22:17:45.503Z,4.23
2023-09-13T22:20:11.584Z,3.00
2023-09-13T22:22:13.581Z,3.60
2023-09-13T22:24:17.839Z,4.33
2023-09-13T22:26:22.781Z,3.90
2023-09-13T22:28:24.815Z,2.70
2023-09-13T22:30:27.089Z,3.63
2023-09-13T22:32:34.383Z,2.37
2023-09-13T22:34:37.472Z,3.13
2023-09-13T22:36:39.645Z,3.17
2023-09-13T22:38:54.426Z,4.73
2023-09-13T22:41:10.890Z,2.77
2023-09-13T22:43:12.830Z,6.07
2023-09-13T22:45:14.904Z,5.23
2023-09-13T22:47:16.723Z,2.97
2023-09-13T22:49:21.746Z,3.70
2023-09-13T22:51:23.666Z,4.23
2023-09-13T22:53:25.633Z,3.03
2023-09-13T22:55:30.556Z,3.60
2023-09-13T22:57:32.643Z,4.53
2023-09-13T22:59:35.028Z,3.83
2023-09-13T23:01:36.976Z,3.13
2023-09-13T23:03:44.781Z,2.77
2023-09-13T23:05:49.312Z,4.47
2023-09-13T23:07:52.033Z,3.97
2023-09-13T23:09:53.684Z,2.47
2023-09-13T23:11:55.400Z,2.77
2023-09-13T23:13:57.769Z,2.53
2023-09-13T23:16:01.224Z,2.67
2023-09-13T23:18:03.648Z,2.97
2023-09-13T23:20:07.362Z,2.40
2023-09-13T23:22:10.380Z,3.40
2023-09-13T23:24:13.577Z,4.10
2023-09-13T23:26:15.301Z,3.63
2023-09-13T23:28:17.170Z,2.57
2023-09-13T23:30:19.061Z,2.70
2023-09-13T23:32:20.828Z,2.37
2023-09-13T23:34:22.723Z,4.10
2023-09-13T23:36:25.736Z,3.03
2023-09-13T23:38:29.024Z,2.87
2023-09-13T23:40:32.837Z,3.47
2023-09-13T23:42:34.532Z,2.70
2023-09-13T23:44:38.905Z,2.50
2023-09-13T23:46:40.737Z,2.50
2023-09-13T23:48:43.602Z,3.00
2023-09-13T23:50:45.499Z,3.50
2023-09-13T23:52:47.580Z,2.70
2023-09-13T23:54:50.771Z,2.40
2023-09-13T23:56:54.908Z,3.10
2023-09-13T23:58:56.639Z,2.60
